sensor_id;sensor_type;location;lat;lon;timestamp;temperature;humidity
16995;DHT22;8614;48.522;9.206;2022-07-19T00:00:08;18.50;99.90
16995;DHT22;8614;48.522;9.206;2022-07-19T00:02:38;18.50;99.90
16995;DHT22;8614;48.522;9.206;2022-07-19T00:05:06;18.40;99.90
16995;DHT22;8614;48.522;9.206;2022-07-19T00:07:33;18.40;99.90
16995;DHT22;8614;48.522;9.206;2022-07-19T00:10:00;18.30;99.90
16995;DHT22;8614;48.522;9.206;2022-07-19T00:12:27;18.30;99.90
16995;DHT22;8614;48.522;9.206;2022-07-19T00:14:54;18.20;99.90
16995;DHT22;8614;48.522;9.206;2022-07-19T00:17:21;18.20;99.90
16995;DHT22;8614;48.522;9.206;2022-07-19T00:19:49;18.20;99.90
16995;DHT22;8614;48.522;9.206;2022-07-19T00:22:16;18.10;99.90
16995;DHT22;8614;48.522;9.206;2022-07-19T00:24:43;18.10;99.90
16995;DHT22;8614;48.522;9.206;2022-07-19T00:27:09;18.10;99.90
16995;DHT22;8614;48.522;9.206;2022-07-19T00:29:37;18.00;99.90
16995;DHT22;8614;48.522;9.206;2022-07-19T00:32:05;18.00;99.90
16995;DHT22;8614;48.522;9.206;2022-07-19T00:34:32;18.00;99.90
16995;DHT22;8614;48.522;9.206;2022-07-19T00:37:00;18.00;99.90
16995;DHT22;8614;48.522;9.206;2022-07-19T00:39:27;17.90;99.90
16995;DHT22;8614;48.522;9.206;2022-07-19T00:41:54;17.90;99.90
16995;DHT22;8614;48.522;9.206;2022-07-19T00:44:22;17.80;99.90
16995;DHT22;8614;48.522;9.206;2022-07-19T00:46:49;17.80;99.90
16995;DHT22;8614;48.522;9.206;2022-07-19T00:49:16;17.80;99.90
16995;DHT22;8614;48.522;9.206;2022-07-19T00:51:44;17.70;99.90
16995;DHT22;8614;48.522;9.206;2022-07-19T00:54:13;17.70;99.90
16995;DHT22;8614;48.522;9.206;2022-07-19T00:56:41;17.70;99.90
16995;DHT22;8614;48.522;9.206;2022-07-19T00:59:09;17.60;99.90
16995;DHT22;8614;48.522;9.206;2022-07-19T01:01:37;17.60;99.90
16995;DHT22;8614;48.522;9.206;2022-07-19T01:04:04;17.60;99.90
16995;DHT22;8614;48.522;9.206;2022-07-19T01:06:31;17.60;99.90
16995;DHT22;8614;48.522;9.206;2022-07-19T01:08:58;17.60;99.90
16995;DHT22;8614;48.522;9.206;2022-07-19T01:11:26;17.60;99.90
16995;DHT22;8614;48.522;9.206;2022-07-19T01:13:53;17.60;99.90
16995;DHT22;8614;48.522;9.206;2022-07-19T01:16:20;17.60;99.90
16995;DHT22;8614;48.522;9.206;2022-07-19T01:18:47;17.60;99.90
16995;DHT22;8614;48.522;9.206;2022-07-19T01:21:19;17.50;99.90
16995;DHT22;8614;48.522;9.206;2022-07-19T01:23:46;17.40;99.90
16995;DHT22;8614;48.522;9.206;2022-07-19T01:26:13;17.30;99.90
16995;DHT22;8614;48.522;9.206;2022-07-19T01:28:41;17.20;99.90
16995;DHT22;8614;48.522;9.206;2022-07-19T01:31:07;17.20;99.90
16995;DHT22;8614;48.522;9.206;2022-07-19T01:33:38;17.20;99.90
16995;DHT22;8614;48.522;9.206;2022-07-19T01:36:06;17.10;99.90
16995;DHT22;8614;48.522;9.206;2022-07-19T01:38:34;17.10;99.90
16995;DHT22;8614;48.522;9.206;2022-07-19T01:41:01;17.00;99.90
16995;DHT22;8614;48.522;9.206;2022-07-19T01:43:28;17.00;99.90
16995;DHT22;8614;48.522;9.206;2022-07-19T01:45:54;16.90;99.90
16995;DHT22;8614;48.522;9.206;2022-07-19T01:48:21;16.90;99.90
16995;DHT22;8614;48.522;9.206;2022-07-19T01:50:48;16.90;99.90
16995;DHT22;8614;48.522;9.206;2022-07-19T01:53:15;16.80;99.90
16995;DHT22;8614;48.522;9.206;2022-07-19T01:55:43;16.80;99.90
16995;DHT22;8614;48.522;9.206;2022-07-19T01:58:10;16.80;99.90
16995;DHT22;8614;48.522;9.206;2022-07-19T02:00:37;16.80;99.90
16995;DHT22;8614;48.522;9.206;2022-07-19T02:03:04;16.80;99.90
16995;DHT22;8614;48.522;9.206;2022-07-19T02:05:30;16.70;99.90
16995;DHT22;8614;48.522;9.206;2022-07-19T02:07:57;16.70;99.90
16995;DHT22;8614;48.522;9.206;2022-07-19T02:10:24;16.70;99.90
16995;DHT22;8614;48.522;9.206;2022-07-19T02:12:52;16.60;99.90
16995;DHT22;8614;48.522;9.206;2022-07-19T02:15:19;16.60;99.90
16995;DHT22;8614;48.522;9.206;2022-07-19T02:17:45;16.60;99.90
16995;DHT22;8614;48.522;9.206;2022-07-19T02:20:13;16.50;99.90
16995;DHT22;8614;48.522;9.206;2022-07-19T02:22:39;16.50;99.90
16995;DHT22;8614;48.522;9.206;2022-07-19T02:25:07;16.40;99.90
16995;DHT22;8614;48.522;9.206;2022-07-19T02:27:34;16.50;99.90
16995;DHT22;8614;48.522;9.206;2022-07-19T02:30:03;16.40;99.90
16995;DHT22;8614;48.522;9.206;2022-07-19T02:32:30;16.40;99.90
16995;DHT22;8614;48.522;9.206;2022-07-19T02:34:57;16.40;99.90
16995;DHT22;8614;48.522;9.206;2022-07-19T02:37:23;16.40;99.90
16995;DHT22;8614;48.522;9.206;2022-07-19T02:39:50;16.40;99.90
16995;DHT22;8614;48.522;9.206;2022-07-19T02:42:17;16.30;99.90
16995;DHT22;8614;48.522;9.206;2022-07-19T02:44:44;16.40;99.90
16995;DHT22;8614;48.522;9.206;2022-07-19T02:47:12;16.30;99.90
16995;DHT22;8614;48.522;9.206;2022-07-19T02:49:39;16.30;99.90
16995;DHT22;8614;48.522;9.206;2022-07-19T02:52:05;16.30;99.90
16995;DHT22;8614;48.522;9.206;2022-07-19T02:54:32;16.20;99.90
16995;DHT22;8614;48.522;9.206;2022-07-19T02:56:59;16.20;99.90
16995;DHT22;8614;48.522;9.206;2022-07-19T02:59:26;16.10;99.90
16995;DHT22;8614;48.522;9.206;2022-07-19T03:01:53;16.10;99.90
16995;DHT22;8614;48.522;9.206;2022-07-19T03:04:21;16.00;99.90
16995;DHT22;8614;48.522;9.206;2022-07-19T03:06:48;16.00;99.90
16995;DHT22;8614;48.522;9.206;2022-07-19T03:09:15;16.00;99.90
16995;DHT22;8614;48.522;9.206;2022-07-19T03:11:42;16.00;99.90
16995;DHT22;8614;48.522;9.206;2022-07-19T03:14:09;15.90;99.90
16995;DHT22;8614;48.522;9.206;2022-07-19T03:16:35;15.90;99.90
16995;DHT22;8614;48.522;9.206;2022-07-19T03:19:02;15.80;99.90
16995;DHT22;8614;48.522;9.206;2022-07-19T03:21:30;15.80;99.90
16995;DHT22;8614;48.522;9.206;2022-07-19T03:23:58;15.80;99.90
16995;DHT22;8614;48.522;9.206;2022-07-19T03:26:25;15.80;99.90
16995;DHT22;8614;48.522;9.206;2022-07-19T03:28:52;15.80;99.90
16995;DHT22;8614;48.522;9.206;2022-07-19T03:31:19;15.70;99.90
16995;DHT22;8614;48.522;9.206;2022-07-19T03:33:46;15.70;99.90
16995;DHT22;8614;48.522;9.206;2022-07-19T03:36:13;15.70;99.90
16995;DHT22;8614;48.522;9.206;2022-07-19T03:38:41;15.70;99.90
16995;DHT22;8614;48.522;9.206;2022-07-19T03:41:07;15.70;99.90
16995;DHT22;8614;48.522;9.206;2022-07-19T03:43:37;15.60;99.90
16995;DHT22;8614;48.522;9.206;2022-07-19T03:46:04;15.60;99.90
16995;DHT22;8614;48.522;9.206;2022-07-19T03:48:31;15.60;99.90
16995;DHT22;8614;48.522;9.206;2022-07-19T03:50:58;15.60;99.90
16995;DHT22;8614;48.522;9.206;2022-07-19T03:53:25;15.50;99.90
16995;DHT22;8614;48.522;9.206;2022-07-19T03:55:53;15.50;99.90
16995;DHT22;8614;48.522;9.206;2022-07-19T03:58:20;15.50;99.90
16995;DHT22;8614;48.522;9.206;2022-07-19T04:00:46;15.50;99.90
16995;DHT22;8614;48.522;9.206;2022-07-19T04:03:13;15.50;99.90
16995;DHT22;8614;48.522;9.206;2022-07-19T04:05:40;15.50;99.90
16995;DHT22;8614;48.522;9.206;2022-07-19T04:08:07;15.50;99.90
16995;DHT22;8614;48.522;9.206;2022-07-19T04:10:34;15.50;99.90
16995;DHT22;8614;48.522;9.206;2022-07-19T04:13:02;15.50;99.90
16995;DHT22;8614;48.522;9.206;2022-07-19T04:15:29;15.60;99.90
16995;DHT22;8614;48.522;9.206;2022-07-19T04:17:56;15.60;99.90
16995;DHT22;8614;48.522;9.206;2022-07-19T04:20:23;15.60;99.90
16995;DHT22;8614;48.522;9.206;2022-07-19T04:22:49;15.70;99.90
16995;DHT22;8614;48.522;9.206;2022-07-19T04:25:16;15.80;99.90
16995;DHT22;8614;48.522;9.206;2022-07-19T04:27:43;15.90;99.90
16995;DHT22;8614;48.522;9.206;2022-07-19T04:30:11;15.90;99.90
16995;DHT22;8614;48.522;9.206;2022-07-19T04:32:38;16.00;99.90
16995;DHT22;8614;48.522;9.206;2022-07-19T04:35:05;16.00;99.90
16995;DHT22;8614;48.522;9.206;2022-07-19T04:37:32;16.10;99.90
16995;DHT22;8614;48.522;9.206;2022-07-19T04:39:59;16.20;99.90
16995;DHT22;8614;48.522;9.206;2022-07-19T04:42:26;16.30;99.90
16995;DHT22;8614;48.522;9.206;2022-07-19T04:44:53;16.40;99.90
16995;DHT22;8614;48.522;9.206;2022-07-19T04:47:21;16.50;99.90
16995;DHT22;8614;48.522;9.206;2022-07-19T04:49:47;16.60;99.90
16995;DHT22;8614;48.522;9.206;2022-07-19T04:52:14;16.60;99.90
16995;DHT22;8614;48.522;9.206;2022-07-19T04:54:41;16.80;99.90
16995;DHT22;8614;48.522;9.206;2022-07-19T04:57:08;16.80;99.90
16995;DHT22;8614;48.522;9.206;2022-07-19T04:59:35;17.00;99.90
16995;DHT22;8614;48.522;9.206;2022-07-19T05:02:02;17.10;99.90
16995;DHT22;8614;48.522;9.206;2022-07-19T05:04:30;17.30;99.90
16995;DHT22;8614;48.522;9.206;2022-07-19T05:06:57;17.40;99.90
16995;DHT22;8614;48.522;9.206;2022-07-19T05:09:24;17.60;99.90
16995;DHT22;8614;48.522;9.206;2022-07-19T05:11:51;17.80;99.90
16995;DHT22;8614;48.522;9.206;2022-07-19T05:14:18;17.90;99.90
16995;DHT22;8614;48.522;9.206;2022-07-19T05:16:46;18.20;99.90
16995;DHT22;8614;48.522;9.206;2022-07-19T05:19:15;18.30;99.90
16995;DHT22;8614;48.522;9.206;2022-07-19T05:21:44;18.40;99.90
16995;DHT22;8614;48.522;9.206;2022-07-19T05:24:10;18.50;99.90
16995;DHT22;8614;48.522;9.206;2022-07-19T05:26:37;18.60;99.90
16995;DHT22;8614;48.522;9.206;2022-07-19T05:29:04;18.70;99.90
16995;DHT22;8614;48.522;9.206;2022-07-19T05:31:31;18.90;99.90
16995;DHT22;8614;48.522;9.206;2022-07-19T05:33:58;19.10;99.90
16995;DHT22;8614;48.522;9.206;2022-07-19T05:36:25;19.20;99.90
16995;DHT22;8614;48.522;9.206;2022-07-19T05:38:53;19.40;99.90
16995;DHT22;8614;48.522;9.206;2022-07-19T05:41:21;19.50;99.90
16995;DHT22;8614;48.522;9.206;2022-07-19T05:43:49;19.60;99.90
16995;DHT22;8614;48.522;9.206;2022-07-19T05:46:16;19.80;99.90
16995;DHT22;8614;48.522;9.206;2022-07-19T05:48:43;20.00;99.90
16995;DHT22;8614;48.522;9.206;2022-07-19T05:51:10;20.30;99.90
16995;DHT22;8614;48.522;9.206;2022-07-19T05:53:37;20.70;99.90
16995;DHT22;8614;48.522;9.206;2022-07-19T05:56:06;21.50;99.90
16995;DHT22;8614;48.522;9.206;2022-07-19T05:58:33;22.30;99.90
16995;DHT22;8614;48.522;9.206;2022-07-19T06:01:00;23.10;99.90
16995;DHT22;8614;48.522;9.206;2022-07-19T06:03:50;23.60;99.90
16995;DHT22;8614;48.522;9.206;2022-07-19T06:06:17;24.20;99.90
16995;DHT22;8614;48.522;9.206;2022-07-19T06:08:44;24.50;99.90
16995;DHT22;8614;48.522;9.206;2022-07-19T06:11:13;24.50;99.90
16995;DHT22;8614;48.522;9.206;2022-07-19T06:13:41;24.70;99.90
16995;DHT22;8614;48.522;9.206;2022-07-19T06:16:09;24.70;99.90
16995;DHT22;8614;48.522;9.206;2022-07-19T06:18:36;24.90;99.90
16995;DHT22;8614;48.522;9.206;2022-07-19T06:21:07;25.10;99.90
16995;DHT22;8614;48.522;9.206;2022-07-19T06:23:34;24.80;99.90
16995;DHT22;8614;48.522;9.206;2022-07-19T06:26:02;24.60;99.90
16995;DHT22;8614;48.522;9.206;2022-07-19T06:28:30;24.40;99.90
16995;DHT22;8614;48.522;9.206;2022-07-19T06:30:57;24.40;99.90
16995;DHT22;8614;48.522;9.206;2022-07-19T06:33:24;24.70;99.90
16995;DHT22;8614;48.522;9.206;2022-07-19T06:35:51;25.20;99.90
16995;DHT22;8614;48.522;9.206;2022-07-19T06:38:18;25.40;99.90
16995;DHT22;8614;48.522;9.206;2022-07-19T06:40:45;25.90;99.70
16995;DHT22;8614;48.522;9.206;2022-07-19T06:43:12;26.20;98.70
16995;DHT22;8614;48.522;9.206;2022-07-19T06:45:40;26.80;98.80
16995;DHT22;8614;48.522;9.206;2022-07-19T06:48:07;27.20;97.80
16995;DHT22;8614;48.522;9.206;2022-07-19T06:50:34;27.50;96.80
16995;DHT22;8614;48.522;9.206;2022-07-19T06:53:01;27.60;96.40
16995;DHT22;8614;48.522;9.206;2022-07-19T06:55:28;27.90;96.90
16995;DHT22;8614;48.522;9.206;2022-07-19T06:57:55;28.00;96.40
16995;DHT22;8614;48.522;9.206;2022-07-19T07:00:22;27.90;95.60
16995;DHT22;8614;48.522;9.206;2022-07-19T07:02:50;28.00;95.60
16995;DHT22;8614;48.522;9.206;2022-07-19T07:05:16;28.20;95.50
16995;DHT22;8614;48.522;9.206;2022-07-19T07:07:43;28.40;94.60
16995;DHT22;8614;48.522;9.206;2022-07-19T07:10:10;28.30;95.00
16995;DHT22;8614;48.522;9.206;2022-07-19T07:12:37;28.70;94.40
16995;DHT22;8614;48.522;9.206;2022-07-19T07:15:05;29.30;93.70
16995;DHT22;8614;48.522;9.206;2022-07-19T07:17:33;29.60;93.20
16995;DHT22;8614;48.522;9.206;2022-07-19T07:20:01;29.60;93.30
16995;DHT22;8614;48.522;9.206;2022-07-19T07:22:28;29.50;92.40
16995;DHT22;8614;48.522;9.206;2022-07-19T07:24:55;29.60;91.80
16995;DHT22;8614;48.522;9.206;2022-07-19T07:27:22;29.70;92.80
16995;DHT22;8614;48.522;9.206;2022-07-19T07:29:48;29.80;93.10
16995;DHT22;8614;48.522;9.206;2022-07-19T07:32:15;29.90;92.90
16995;DHT22;8614;48.522;9.206;2022-07-19T07:34:42;30.00;93.10
16995;DHT22;8614;48.522;9.206;2022-07-19T07:37:10;30.20;92.60
16995;DHT22;8614;48.522;9.206;2022-07-19T07:39:37;30.40;90.90
16995;DHT22;8614;48.522;9.206;2022-07-19T07:42:05;30.80;90.60
16995;DHT22;8614;48.522;9.206;2022-07-19T07:44:32;30.90;90.40
16995;DHT22;8614;48.522;9.206;2022-07-19T07:46:59;31.10;90.20
16995;DHT22;8614;48.522;9.206;2022-07-19T07:49:27;31.10;87.00
16995;DHT22;8614;48.522;9.206;2022-07-19T07:51:55;30.80;83.80
16995;DHT22;8614;48.522;9.206;2022-07-19T07:54:24;31.10;84.30
16995;DHT22;8614;48.522;9.206;2022-07-19T07:56:51;31.00;84.60
16995;DHT22;8614;48.522;9.206;2022-07-19T07:59:18;31.10;83.60
16995;DHT22;8614;48.522;9.206;2022-07-19T08:01:46;31.40;84.50
16995;DHT22;8614;48.522;9.206;2022-07-19T08:04:13;31.60;83.40
16995;DHT22;8614;48.522;9.206;2022-07-19T08:06:40;31.60;83.70
16995;DHT22;8614;48.522;9.206;2022-07-19T08:09:07;32.00;84.80
16995;DHT22;8614;48.522;9.206;2022-07-19T08:11:35;32.20;83.70
16995;DHT22;8614;48.522;9.206;2022-07-19T08:14:02;32.30;81.80
16995;DHT22;8614;48.522;9.206;2022-07-19T08:16:29;32.30;85.50
16995;DHT22;8614;48.522;9.206;2022-07-19T08:18:56;32.30;82.20
16995;DHT22;8614;48.522;9.206;2022-07-19T08:21:23;32.30;82.30
16995;DHT22;8614;48.522;9.206;2022-07-19T08:23:50;32.30;83.50
16995;DHT22;8614;48.522;9.206;2022-07-19T08:26:19;32.50;82.80
16995;DHT22;8614;48.522;9.206;2022-07-19T08:28:47;32.60;84.00
16995;DHT22;8614;48.522;9.206;2022-07-19T08:31:15;33.00;83.70
16995;DHT22;8614;48.522;9.206;2022-07-19T08:33:42;33.20;81.70
16995;DHT22;8614;48.522;9.206;2022-07-19T08:36:09;33.20;82.20
16995;DHT22;8614;48.522;9.206;2022-07-19T08:38:36;33.50;82.50
16995;DHT22;8614;48.522;9.206;2022-07-19T08:41:04;34.00;82.30
16995;DHT22;8614;48.522;9.206;2022-07-19T08:43:32;34.20;78.50
16995;DHT22;8614;48.522;9.206;2022-07-19T08:46:02;34.40;75.80
16995;DHT22;8614;48.522;9.206;2022-07-19T08:48:31;34.50;75.40
16995;DHT22;8614;48.522;9.206;2022-07-19T08:51:00;34.30;69.20
16995;DHT22;8614;48.522;9.206;2022-07-19T08:53:30;34.60;69.30
16995;DHT22;8614;48.522;9.206;2022-07-19T08:55:57;34.70;70.00
16995;DHT22;8614;48.522;9.206;2022-07-19T08:58:25;35.00;71.60
16995;DHT22;8614;48.522;9.206;2022-07-19T09:00:51;35.00;69.40
16995;DHT22;8614;48.522;9.206;2022-07-19T09:03:19;34.80;70.30
16995;DHT22;8614;48.522;9.206;2022-07-19T09:05:46;34.30;68.80
16995;DHT22;8614;48.522;9.206;2022-07-19T09:08:16;34.60;68.40
16995;DHT22;8614;48.522;9.206;2022-07-19T09:10:45;35.00;65.00
16995;DHT22;8614;48.522;9.206;2022-07-19T09:13:34;35.10;64.40
16995;DHT22;8614;48.522;9.206;2022-07-19T09:16:01;35.50;61.90
16995;DHT22;8614;48.522;9.206;2022-07-19T09:18:31;35.60;61.30
16995;DHT22;8614;48.522;9.206;2022-07-19T09:21:00;35.80;61.90
16995;DHT22;8614;48.522;9.206;2022-07-19T09:23:28;35.30;58.40
16995;DHT22;8614;48.522;9.206;2022-07-19T09:25:56;35.40;61.70
16995;DHT22;8614;48.522;9.206;2022-07-19T09:28:25;35.30;60.00
16995;DHT22;8614;48.522;9.206;2022-07-19T09:30:54;35.30;59.80
16995;DHT22;8614;48.522;9.206;2022-07-19T09:33:23;35.50;59.20
16995;DHT22;8614;48.522;9.206;2022-07-19T09:35:54;35.70;58.10
16995;DHT22;8614;48.522;9.206;2022-07-19T09:38:24;35.80;59.30
16995;DHT22;8614;48.522;9.206;2022-07-19T09:40:54;35.80;59.00
16995;DHT22;8614;48.522;9.206;2022-07-19T09:43:49;36.00;57.90
16995;DHT22;8614;48.522;9.206;2022-07-19T09:46:30;36.10;60.10
16995;DHT22;8614;48.522;9.206;2022-07-19T09:49:05;35.70;58.70
16995;DHT22;8614;48.522;9.206;2022-07-19T09:51:36;35.70;59.60
16995;DHT22;8614;48.522;9.206;2022-07-19T09:54:03;35.30;58.10
16995;DHT22;8614;48.522;9.206;2022-07-19T09:56:31;35.40;58.10
16995;DHT22;8614;48.522;9.206;2022-07-19T09:58:58;35.00;57.80
16995;DHT22;8614;48.522;9.206;2022-07-19T10:01:26;35.10;57.40
16995;DHT22;8614;48.522;9.206;2022-07-19T10:03:54;34.60;57.80
16995;DHT22;8614;48.522;9.206;2022-07-19T10:06:22;34.50;58.90
16995;DHT22;8614;48.522;9.206;2022-07-19T10:08:52;34.50;59.30
16995;DHT22;8614;48.522;9.206;2022-07-19T10:11:18;34.90;59.90
16995;DHT22;8614;48.522;9.206;2022-07-19T10:13:47;34.90;59.10
16995;DHT22;8614;48.522;9.206;2022-07-19T10:16:18;35.00;58.50
16995;DHT22;8614;48.522;9.206;2022-07-19T10:18:51;34.70;57.90
16995;DHT22;8614;48.522;9.206;2022-07-19T10:21:23;35.00;57.00
16995;DHT22;8614;48.522;9.206;2022-07-19T10:23:52;34.70;58.70
16995;DHT22;8614;48.522;9.206;2022-07-19T10:26:33;34.80;58.40
16995;DHT22;8614;48.522;9.206;2022-07-19T10:29:07;34.50;57.90
16995;DHT22;8614;48.522;9.206;2022-07-19T10:31:34;34.20;57.60
16995;DHT22;8614;48.522;9.206;2022-07-19T10:34:03;34.30;59.40
16995;DHT22;8614;48.522;9.206;2022-07-19T10:36:32;34.40;59.20
16995;DHT22;8614;48.522;9.206;2022-07-19T10:39:23;34.30;57.20
16995;DHT22;8614;48.522;9.206;2022-07-19T10:42:13;34.00;56.60
16995;DHT22;8614;48.522;9.206;2022-07-19T10:45:09;34.00;56.50
16995;DHT22;8614;48.522;9.206;2022-07-19T10:48:02;33.90;56.20
16995;DHT22;8614;48.522;9.206;2022-07-19T10:50:43;34.10;57.80
16995;DHT22;8614;48.522;9.206;2022-07-19T10:53:10;33.90;58.00
16995;DHT22;8614;48.522;9.206;2022-07-19T10:55:38;33.90;58.00
16995;DHT22;8614;48.522;9.206;2022-07-19T10:58:10;34.00;57.40
16995;DHT22;8614;48.522;9.206;2022-07-19T11:00:41;34.00;58.00
16995;DHT22;8614;48.522;9.206;2022-07-19T11:03:28;33.80;56.70
16995;DHT22;8614;48.522;9.206;2022-07-19T11:05:57;33.70;56.00
16995;DHT22;8614;48.522;9.206;2022-07-19T11:08:31;33.70;55.70
16995;DHT22;8614;48.522;9.206;2022-07-19T11:11:04;33.50;57.70
16995;DHT22;8614;48.522;9.206;2022-07-19T11:13:31;33.40;57.20
16995;DHT22;8614;48.522;9.206;2022-07-19T11:15:58;33.60;58.40
16995;DHT22;8614;48.522;9.206;2022-07-19T11:18:26;33.70;58.40
16995;DHT22;8614;48.522;9.206;2022-07-19T11:20:56;33.70;58.20
16995;DHT22;8614;48.522;9.206;2022-07-19T11:23:23;33.60;56.90
16995;DHT22;8614;48.522;9.206;2022-07-19T11:25:50;33.50;58.40
16995;DHT22;8614;48.522;9.206;2022-07-19T11:28:22;33.40;58.90
16995;DHT22;8614;48.522;9.206;2022-07-19T11:30:50;33.40;57.90
16995;DHT22;8614;48.522;9.206;2022-07-19T11:33:19;33.40;57.40
16995;DHT22;8614;48.522;9.206;2022-07-19T11:35:56;33.50;58.10
16995;DHT22;8614;48.522;9.206;2022-07-19T11:38:23;33.50;58.00
16995;DHT22;8614;48.522;9.206;2022-07-19T11:40:50;33.40;58.00
16995;DHT22;8614;48.522;9.206;2022-07-19T11:43:17;33.50;58.50
16995;DHT22;8614;48.522;9.206;2022-07-19T11:45:48;33.40;57.40
16995;DHT22;8614;48.522;9.206;2022-07-19T11:48:26;33.50;58.20
16995;DHT22;8614;48.522;9.206;2022-07-19T11:51:05;33.30;57.70
16995;DHT22;8614;48.522;9.206;2022-07-19T11:53:34;33.40;57.10
16995;DHT22;8614;48.522;9.206;2022-07-19T11:56:02;33.40;56.50
16995;DHT22;8614;48.522;9.206;2022-07-19T11:58:29;33.40;56.40
16995;DHT22;8614;48.522;9.206;2022-07-19T12:01:03;33.50;55.40
16995;DHT22;8614;48.522;9.206;2022-07-19T12:03:30;33.40;56.10
16995;DHT22;8614;48.522;9.206;2022-07-19T12:05:59;33.50;57.30
16995;DHT22;8614;48.522;9.206;2022-07-19T12:08:38;33.30;56.50
16995;DHT22;8614;48.522;9.206;2022-07-19T12:11:19;33.30;56.50
16995;DHT22;8614;48.522;9.206;2022-07-19T12:13:47;33.20;56.30
16995;DHT22;8614;48.522;9.206;2022-07-19T12:16:17;33.30;57.70
16995;DHT22;8614;48.522;9.206;2022-07-19T12:18:46;33.10;56.70
16995;DHT22;8614;48.522;9.206;2022-07-19T12:21:21;33.10;57.60
16995;DHT22;8614;48.522;9.206;2022-07-19T12:24:12;33.10;56.90
16995;DHT22;8614;48.522;9.206;2022-07-19T12:26:40;33.20;57.70
16995;DHT22;8614;48.522;9.206;2022-07-19T12:29:20;33.30;57.30
16995;DHT22;8614;48.522;9.206;2022-07-19T12:31:51;33.00;57.20
16995;DHT22;8614;48.522;9.206;2022-07-19T12:34:18;32.90;57.90
16995;DHT22;8614;48.522;9.206;2022-07-19T12:36:45;33.00;58.60
16995;DHT22;8614;48.522;9.206;2022-07-19T12:39:21;33.10;58.70
16995;DHT22;8614;48.522;9.206;2022-07-19T12:42:01;33.10;57.40
16995;DHT22;8614;48.522;9.206;2022-07-19T12:44:28;33.10;57.20
16995;DHT22;8614;48.522;9.206;2022-07-19T12:46:57;33.10;57.40
16995;DHT22;8614;48.522;9.206;2022-07-19T12:49:24;33.20;58.30
16995;DHT22;8614;48.522;9.206;2022-07-19T12:51:52;33.30;57.60
16995;DHT22;8614;48.522;9.206;2022-07-19T12:54:18;33.40;57.70
16995;DHT22;8614;48.522;9.206;2022-07-19T12:56:45;33.50;56.50
16995;DHT22;8614;48.522;9.206;2022-07-19T12:59:12;33.40;56.60
16995;DHT22;8614;48.522;9.206;2022-07-19T13:01:58;33.40;57.00
16995;DHT22;8614;48.522;9.206;2022-07-19T13:04:25;33.30;57.30
16995;DHT22;8614;48.522;9.206;2022-07-19T13:06:51;33.20;56.50
16995;DHT22;8614;48.522;9.206;2022-07-19T13:09:18;33.30;56.50
16995;DHT22;8614;48.522;9.206;2022-07-19T13:11:45;33.30;56.90
16995;DHT22;8614;48.522;9.206;2022-07-19T13:14:12;33.10;57.10
16995;DHT22;8614;48.522;9.206;2022-07-19T13:16:39;33.20;57.50
16995;DHT22;8614;48.522;9.206;2022-07-19T13:19:08;33.20;56.50
16995;DHT22;8614;48.522;9.206;2022-07-19T13:21:35;33.20;55.50
16995;DHT22;8614;48.522;9.206;2022-07-19T13:24:02;33.20;55.40
16995;DHT22;8614;48.522;9.206;2022-07-19T13:26:29;33.30;56.60
16995;DHT22;8614;48.522;9.206;2022-07-19T13:28:56;33.30;56.50
16995;DHT22;8614;48.522;9.206;2022-07-19T13:31:22;33.30;55.60
16995;DHT22;8614;48.522;9.206;2022-07-19T13:33:49;33.20;55.40
16995;DHT22;8614;48.522;9.206;2022-07-19T13:36:17;33.30;55.60
16995;DHT22;8614;48.522;9.206;2022-07-19T13:38:44;33.30;55.40
16995;DHT22;8614;48.522;9.206;2022-07-19T13:41:14;33.40;55.50
16995;DHT22;8614;48.522;9.206;2022-07-19T13:43:42;33.50;56.30
16995;DHT22;8614;48.522;9.206;2022-07-19T13:46:09;33.50;55.80
16995;DHT22;8614;48.522;9.206;2022-07-19T13:48:36;33.40;56.20
16995;DHT22;8614;48.522;9.206;2022-07-19T13:51:03;33.30;55.80
16995;DHT22;8614;48.522;9.206;2022-07-19T13:53:31;33.40;55.40
16995;DHT22;8614;48.522;9.206;2022-07-19T13:55:58;33.40;56.30
16995;DHT22;8614;48.522;9.206;2022-07-19T13:58:24;33.50;55.40
16995;DHT22;8614;48.522;9.206;2022-07-19T14:00:51;33.50;54.80
16995;DHT22;8614;48.522;9.206;2022-07-19T14:03:18;33.60;54.20
16995;DHT22;8614;48.522;9.206;2022-07-19T14:05:46;33.50;55.40
16995;DHT22;8614;48.522;9.206;2022-07-19T14:08:13;33.60;55.50
16995;DHT22;8614;48.522;9.206;2022-07-19T14:10:42;33.60;55.00
16995;DHT22;8614;48.522;9.206;2022-07-19T14:13:09;33.50;55.10
16995;DHT22;8614;48.522;9.206;2022-07-19T14:15:38;33.50;55.30
16995;DHT22;8614;48.522;9.206;2022-07-19T14:18:05;33.50;55.50
16995;DHT22;8614;48.522;9.206;2022-07-19T14:20:32;33.60;54.90
16995;DHT22;8614;48.522;9.206;2022-07-19T14:22:59;33.70;54.60
16995;DHT22;8614;48.522;9.206;2022-07-19T14:25:26;33.70;56.10
16995;DHT22;8614;48.522;9.206;2022-07-19T14:27:54;33.70;55.20
16995;DHT22;8614;48.522;9.206;2022-07-19T14:30:21;33.80;54.80
16995;DHT22;8614;48.522;9.206;2022-07-19T14:32:50;33.80;54.40
16995;DHT22;8614;48.522;9.206;2022-07-19T14:35:17;33.80;54.90
16995;DHT22;8614;48.522;9.206;2022-07-19T14:37:43;33.80;54.70
16995;DHT22;8614;48.522;9.206;2022-07-19T14:40:11;33.70;54.20
16995;DHT22;8614;48.522;9.206;2022-07-19T14:42:38;33.70;54.70
16995;DHT22;8614;48.522;9.206;2022-07-19T14:45:07;33.70;54.30
16995;DHT22;8614;48.522;9.206;2022-07-19T14:47:35;33.70;54.50
16995;DHT22;8614;48.522;9.206;2022-07-19T14:50:03;33.70;55.00
16995;DHT22;8614;48.522;9.206;2022-07-19T14:52:31;33.80;54.20
16995;DHT22;8614;48.522;9.206;2022-07-19T14:54:58;33.90;54.50
16995;DHT22;8614;48.522;9.206;2022-07-19T14:57:24;33.80;54.60
16995;DHT22;8614;48.522;9.206;2022-07-19T14:59:51;33.80;55.00
16995;DHT22;8614;48.522;9.206;2022-07-19T15:02:19;33.80;54.10
16995;DHT22;8614;48.522;9.206;2022-07-19T15:04:46;33.70;55.40
16995;DHT22;8614;48.522;9.206;2022-07-19T15:07:13;33.80;54.90
16995;DHT22;8614;48.522;9.206;2022-07-19T15:09:40;33.80;55.00
16995;DHT22;8614;48.522;9.206;2022-07-19T15:12:07;33.90;55.20
16995;DHT22;8614;48.522;9.206;2022-07-19T15:14:35;33.70;54.20
16995;DHT22;8614;48.522;9.206;2022-07-19T15:17:03;33.60;53.90
16995;DHT22;8614;48.522;9.206;2022-07-19T15:19:31;33.70;54.20
16995;DHT22;8614;48.522;9.206;2022-07-19T15:21:58;33.70;54.30
16995;DHT22;8614;48.522;9.206;2022-07-19T15:24:25;33.80;54.20
16995;DHT22;8614;48.522;9.206;2022-07-19T15:26:52;33.80;53.40
16995;DHT22;8614;48.522;9.206;2022-07-19T15:29:19;33.80;54.50
16995;DHT22;8614;48.522;9.206;2022-07-19T15:31:46;33.80;54.60
16995;DHT22;8614;48.522;9.206;2022-07-19T15:34:13;33.80;54.50
16995;DHT22;8614;48.522;9.206;2022-07-19T15:36:41;33.70;54.50
16995;DHT22;8614;48.522;9.206;2022-07-19T15:39:08;33.60;54.20
16995;DHT22;8614;48.522;9.206;2022-07-19T15:41:35;33.50;54.70
16995;DHT22;8614;48.522;9.206;2022-07-19T15:44:02;33.50;54.40
16995;DHT22;8614;48.522;9.206;2022-07-19T15:46:30;33.50;54.40
16995;DHT22;8614;48.522;9.206;2022-07-19T15:48:58;33.50;54.30
16995;DHT22;8614;48.522;9.206;2022-07-19T15:51:25;33.50;53.70